sensor_id;sensor_type;location;lat;lon;timestamp;temperature;humidity
27314;DHT22;14800;48.174;9.798;2023-06-22T00:01:10;22.80;78.30
27314;DHT22;14800;48.174;9.798;2023-06-22T00:03:35;22.80;78.40
27314;DHT22;14800;48.174;9.798;2023-06-22T00:06:01;22.70;78.40
27314;DHT22;14800;48.174;9.798;2023-06-22T00:08:27;22.70;78.50
27314;DHT22;14800;48.174;9.798;2023-06-22T00:10:52;22.70;78.50
27314;DHT22;14800;48.174;9.798;2023-06-22T00:13:18;22.60;78.60
27314;DHT22;14800;48.174;9.798;2023-06-22T00:15:44;22.60;78.80
27314;DHT22;14800;48.174;9.798;2023-06-22T00:18:10;22.60;78.90
27314;DHT22;14800;48.174;9.798;2023-06-22T00:20:37;22.60;79.10
27314;DHT22;14800;48.174;9.798;2023-06-22T00:23:04;22.50;79.20
27314;DHT22;14800;48.174;9.798;2023-06-22T00:25:38;22.50;79.30
27314;DHT22;14800;48.174;9.798;2023-06-22T00:28:06;22.40;79.60
27314;DHT22;14800;48.174;9.798;2023-06-22T00:30:32;22.40;79.50
27314;DHT22;14800;48.174;9.798;2023-06-22T00:32:58;22.40;79.80
27314;DHT22;14800;48.174;9.798;2023-06-22T00:35:24;22.30;79.80
27314;DHT22;14800;48.174;9.798;2023-06-22T00:37:59;22.30;80.00
27314;DHT22;14800;48.174;9.798;2023-06-22T00:40:30;22.30;80.30
27314;DHT22;14800;48.174;9.798;2023-06-22T00:42:56;22.30;80.10
27314;DHT22;14800;48.174;9.798;2023-06-22T00:45:25;22.20;80.00
27314;DHT22;14800;48.174;9.798;2023-06-22T00:47:56;22.20;80.40
27314;DHT22;14800;48.174;9.798;2023-06-22T00:50:26;22.20;80.70
27314;DHT22;14800;48.174;9.798;2023-06-22T00:52:56;22.20;80.60
27314;DHT22;14800;48.174;9.798;2023-06-22T00:55:23;22.20;80.40
27314;DHT22;14800;48.174;9.798;2023-06-22T00:57:51;22.20;80.40
27314;DHT22;14800;48.174;9.798;2023-06-22T01:00:21;22.10;81.30
27314;DHT22;14800;48.174;9.798;2023-06-22T01:02:50;22.10;80.60
27314;DHT22;14800;48.174;9.798;2023-06-22T01:05:21;22.10;80.80
27314;DHT22;14800;48.174;9.798;2023-06-22T01:07:50;22.10;80.80
27314;DHT22;14800;48.174;9.798;2023-06-22T01:10:50;22.10;80.80
27314;DHT22;14800;48.174;9.798;2023-06-22T01:13:35;22.10;81.30
27314;DHT22;14800;48.174;9.798;2023-06-22T01:18:48;22.00;81.50
27314;DHT22;14800;48.174;9.798;2023-06-22T01:21:17;22.00;80.80
27314;DHT22;14800;48.174;9.798;2023-06-22T01:29:18;22.00;81.20
27314;DHT22;14800;48.174;9.798;2023-06-22T01:31:44;21.90;81.10
27314;DHT22;14800;48.174;9.798;2023-06-22T01:34:11;21.80;81.20
27314;DHT22;14800;48.174;9.798;2023-06-22T01:36:38;21.90;81.40
27314;DHT22;14800;48.174;9.798;2023-06-22T01:39:05;21.80;81.50
27314;DHT22;14800;48.174;9.798;2023-06-22T01:41:37;21.80;81.50
27314;DHT22;14800;48.174;9.798;2023-06-22T01:44:05;21.80;82.00
27314;DHT22;14800;48.174;9.798;2023-06-22T01:46:34;21.80;81.90
27314;DHT22;14800;48.174;9.798;2023-06-22T01:48:59;21.70;81.90
27314;DHT22;14800;48.174;9.798;2023-06-22T01:51:26;21.70;81.90
27314;DHT22;14800;48.174;9.798;2023-06-22T01:53:51;21.70;82.00
27314;DHT22;14800;48.174;9.798;2023-06-22T01:56:17;21.70;82.00
27314;DHT22;14800;48.174;9.798;2023-06-22T02:01:58;21.60;83.10
27314;DHT22;14800;48.174;9.798;2023-06-22T02:04:29;21.60;82.40
27314;DHT22;14800;48.174;9.798;2023-06-22T02:06:58;21.60;82.40
27314;DHT22;14800;48.174;9.798;2023-06-22T02:09:26;21.60;82.50
27314;DHT22;14800;48.174;9.798;2023-06-22T02:11:55;21.60;82.60
27314;DHT22;14800;48.174;9.798;2023-06-22T02:14:22;21.50;82.60
27314;DHT22;14800;48.174;9.798;2023-06-22T02:16:49;21.50;82.60
27314;DHT22;14800;48.174;9.798;2023-06-22T02:19:15;21.50;82.90
27314;DHT22;14800;48.174;9.798;2023-06-22T02:21:41;21.50;82.90
27314;DHT22;14800;48.174;9.798;2023-06-22T02:24:07;21.50;83.80
27314;DHT22;14800;48.174;9.798;2023-06-22T02:26:32;21.40;83.00
27314;DHT22;14800;48.174;9.798;2023-06-22T02:28:58;21.50;83.10
27314;DHT22;14800;48.174;9.798;2023-06-22T02:31:23;21.40;83.30
27314;DHT22;14800;48.174;9.798;2023-06-22T02:33:58;21.40;83.20
27314;DHT22;14800;48.174;9.798;2023-06-22T02:36:25;21.40;83.20
27314;DHT22;14800;48.174;9.798;2023-06-22T02:38:52;21.40;83.20
27314;DHT22;14800;48.174;9.798;2023-06-22T02:41:18;21.40;83.20
27314;DHT22;14800;48.174;9.798;2023-06-22T02:43:47;21.30;83.20
27314;DHT22;14800;48.174;9.798;2023-06-22T02:46:13;21.40;83.30
27314;DHT22;14800;48.174;9.798;2023-06-22T02:48:40;21.40;83.30
27314;DHT22;14800;48.174;9.798;2023-06-22T02:51:05;21.40;83.30
27314;DHT22;14800;48.174;9.798;2023-06-22T02:53:31;21.30;83.30
27314;DHT22;14800;48.174;9.798;2023-06-22T02:55:57;21.30;83.30
27314;DHT22;14800;48.174;9.798;2023-06-22T02:58:23;21.30;83.30
27314;DHT22;14800;48.174;9.798;2023-06-22T03:00:49;21.30;83.30
27314;DHT22;14800;48.174;9.798;2023-06-22T03:03:18;21.30;83.20
27314;DHT22;14800;48.174;9.798;2023-06-22T03:05:44;21.30;83.30
27314;DHT22;14800;48.174;9.798;2023-06-22T03:08:09;21.30;83.20
27314;DHT22;14800;48.174;9.798;2023-06-22T03:10:35;21.30;83.10
27314;DHT22;14800;48.174;9.798;2023-06-22T03:13:01;21.30;83.20
27314;DHT22;14800;48.174;9.798;2023-06-22T03:15:26;21.30;83.30
27314;DHT22;14800;48.174;9.798;2023-06-22T03:17:54;21.30;83.30
27314;DHT22;14800;48.174;9.798;2023-06-22T03:20:20;21.20;83.30
27314;DHT22;14800;48.174;9.798;2023-06-22T03:22:46;21.20;83.40
27314;DHT22;14800;48.174;9.798;2023-06-22T03:25:11;21.20;83.50
27314;DHT22;14800;48.174;9.798;2023-06-22T03:27:41;21.20;83.60
27314;DHT22;14800;48.174;9.798;2023-06-22T03:30:08;21.20;83.60
27314;DHT22;14800;48.174;9.798;2023-06-22T03:32:35;21.20;83.70
27314;DHT22;14800;48.174;9.798;2023-06-22T03:35:01;21.20;83.70
27314;DHT22;14800;48.174;9.798;2023-06-22T03:37:27;21.10;83.70
27314;DHT22;14800;48.174;9.798;2023-06-22T03:39:53;21.20;83.80
27314;DHT22;14800;48.174;9.798;2023-06-22T03:42:19;21.10;84.00
27314;DHT22;14800;48.174;9.798;2023-06-22T03:44:45;21.10;84.10
27314;DHT22;14800;48.174;9.798;2023-06-22T03:47:10;21.10;84.10
27314;DHT22;14800;48.174;9.798;2023-06-22T03:49:36;21.10;84.10
27314;DHT22;14800;48.174;9.798;2023-06-22T03:52:02;21.10;84.30
27314;DHT22;14800;48.174;9.798;2023-06-22T03:54:29;21.10;84.30
27314;DHT22;14800;48.174;9.798;2023-06-22T03:56:56;21.10;84.50
27314;DHT22;14800;48.174;9.798;2023-06-22T03:59:22;21.10;84.50
27314;DHT22;14800;48.174;9.798;2023-06-22T04:01:48;21.10;84.50
27314;DHT22;14800;48.174;9.798;2023-06-22T04:04:14;21.10;84.60
27314;DHT22;14800;48.174;9.798;2023-06-22T04:06:40;21.00;84.60
27314;DHT22;14800;48.174;9.798;2023-06-22T04:09:06;21.00;84.80
27314;DHT22;14800;48.174;9.798;2023-06-22T04:11:32;21.00;84.80
27314;DHT22;14800;48.174;9.798;2023-06-22T04:13:57;21.00;85.00
27314;DHT22;14800;48.174;9.798;2023-06-22T04:16:23;21.00;84.90
27314;DHT22;14800;48.174;9.798;2023-06-22T04:18:48;21.00;85.20
27314;DHT22;14800;48.174;9.798;2023-06-22T04:21:14;21.00;85.20
27314;DHT22;14800;48.174;9.798;2023-06-22T04:23:39;21.00;85.30
27314;DHT22;14800;48.174;9.798;2023-06-22T04:26:05;20.90;85.40
27314;DHT22;14800;48.174;9.798;2023-06-22T04:28:31;20.90;85.50
27314;DHT22;14800;48.174;9.798;2023-06-22T04:31:03;20.90;85.70
27314;DHT22;14800;48.174;9.798;2023-06-22T04:33:30;20.90;85.70
27314;DHT22;14800;48.174;9.798;2023-06-22T04:35:57;20.90;85.80
27314;DHT22;14800;48.174;9.798;2023-06-22T04:38:23;20.90;85.90
27314;DHT22;14800;48.174;9.798;2023-06-22T04:40:50;20.90;85.90
27314;DHT22;14800;48.174;9.798;2023-06-22T04:43:15;21.00;86.00
27314;DHT22;14800;48.174;9.798;2023-06-22T04:45:41;21.00;86.00
27314;DHT22;14800;48.174;9.798;2023-06-22T04:48:07;21.00;86.10
27314;DHT22;14800;48.174;9.798;2023-06-22T04:50:36;21.00;86.20
27314;DHT22;14800;48.174;9.798;2023-06-22T04:53:02;21.00;86.40
27314;DHT22;14800;48.174;9.798;2023-06-22T04:55:33;21.10;86.60
27314;DHT22;14800;48.174;9.798;2023-06-22T04:57:59;21.10;86.60
27314;DHT22;14800;48.174;9.798;2023-06-22T05:00:30;21.10;86.60
27314;DHT22;14800;48.174;9.798;2023-06-22T05:02:56;21.10;86.70
27314;DHT22;14800;48.174;9.798;2023-06-22T05:05:23;21.10;86.70
27314;DHT22;14800;48.174;9.798;2023-06-22T05:07:50;21.10;86.70
27314;DHT22;14800;48.174;9.798;2023-06-22T05:10:18;21.20;86.70
27314;DHT22;14800;48.174;9.798;2023-06-22T05:12:45;21.20;86.80
27314;DHT22;14800;48.174;9.798;2023-06-22T05:15:11;21.20;86.70
27314;DHT22;14800;48.174;9.798;2023-06-22T05:17:37;21.20;86.70
27314;DHT22;14800;48.174;9.798;2023-06-22T05:20:09;21.30;86.70
27314;DHT22;14800;48.174;9.798;2023-06-22T05:22:35;21.30;86.60
27314;DHT22;14800;48.174;9.798;2023-06-22T05:25:01;21.40;86.60
27314;DHT22;14800;48.174;9.798;2023-06-22T05:27:26;21.40;86.70
27314;DHT22;14800;48.174;9.798;2023-06-22T05:29:52;21.40;86.60
27314;DHT22;14800;48.174;9.798;2023-06-22T05:32:18;21.50;86.60
27314;DHT22;14800;48.174;9.798;2023-06-22T05:34:44;21.50;86.60
27314;DHT22;14800;48.174;9.798;2023-06-22T05:37:09;21.60;86.70
27314;DHT22;14800;48.174;9.798;2023-06-22T05:39:35;21.60;86.60
27314;DHT22;14800;48.174;9.798;2023-06-22T05:42:07;21.70;86.60
27314;DHT22;14800;48.174;9.798;2023-06-22T05:44:33;21.70;86.40
27314;DHT22;14800;48.174;9.798;2023-06-22T05:46:59;21.70;86.20
27314;DHT22;14800;48.174;9.798;2023-06-22T05:49:25;21.80;85.90
27314;DHT22;14800;48.174;9.798;2023-06-22T05:51:55;21.90;86.00
27314;DHT22;14800;48.174;9.798;2023-06-22T05:54:22;21.90;85.80
27314;DHT22;14800;48.174;9.798;2023-06-22T05:56:47;22.00;85.80
27314;DHT22;14800;48.174;9.798;2023-06-22T05:59:13;22.00;85.60
27314;DHT22;14800;48.174;9.798;2023-06-22T06:01:38;22.10;85.60
27314;DHT22;14800;48.174;9.798;2023-06-22T06:04:05;22.10;85.50
27314;DHT22;14800;48.174;9.798;2023-06-22T06:06:33;22.20;85.50
27314;DHT22;14800;48.174;9.798;2023-06-22T06:09:03;22.30;85.30
27314;DHT22;14800;48.174;9.798;2023-06-22T06:11:28;22.30;85.10
27314;DHT22;14800;48.174;9.798;2023-06-22T06:13:54;22.40;84.80
27314;DHT22;14800;48.174;9.798;2023-06-22T06:16:20;22.40;84.40
27314;DHT22;14800;48.174;9.798;2023-06-22T06:18:45;22.50;84.20
27314;DHT22;14800;48.174;9.798;2023-06-22T06:21:11;22.60;84.00
27314;DHT22;14800;48.174;9.798;2023-06-22T06:23:36;22.60;83.90
27314;DHT22;14800;48.174;9.798;2023-06-22T06:26:02;22.70;83.70
27314;DHT22;14800;48.174;9.798;2023-06-22T06:28:31;22.70;83.70
27314;DHT22;14800;48.174;9.798;2023-06-22T06:30:56;22.80;83.60
27314;DHT22;14800;48.174;9.798;2023-06-22T06:33:22;22.90;84.30
27314;DHT22;14800;48.174;9.798;2023-06-22T06:35:47;22.90;83.30
27314;DHT22;14800;48.174;9.798;2023-06-22T06:38:13;22.90;83.40
27314;DHT22;14800;48.174;9.798;2023-06-22T06:40:38;23.00;83.10
27314;DHT22;14800;48.174;9.798;2023-06-22T06:43:04;23.00;82.60
27314;DHT22;14800;48.174;9.798;2023-06-22T06:45:29;23.10;82.40
27314;DHT22;14800;48.174;9.798;2023-06-22T06:47:58;23.20;82.20
27314;DHT22;14800;48.174;9.798;2023-06-22T06:50:23;23.20;82.00
27314;DHT22;14800;48.174;9.798;2023-06-22T06:52:49;23.30;81.60
27314;DHT22;14800;48.174;9.798;2023-06-22T06:55:16;23.30;81.50
27314;DHT22;14800;48.174;9.798;2023-06-22T06:57:42;23.40;81.40
27314;DHT22;14800;48.174;9.798;2023-06-22T07:00:10;23.40;81.20
27314;DHT22;14800;48.174;9.798;2023-06-22T07:02:43;23.50;80.80
27314;DHT22;14800;48.174;9.798;2023-06-22T07:05:10;23.50;81.00
27314;DHT22;14800;48.174;9.798;2023-06-22T07:07:36;23.60;80.80
27314;DHT22;14800;48.174;9.798;2023-06-22T07:10:03;23.60;80.80
27314;DHT22;14800;48.174;9.798;2023-06-22T07:12:29;23.70;80.50
27314;DHT22;14800;48.174;9.798;2023-06-22T07:15:02;23.80;80.50
27314;DHT22;14800;48.174;9.798;2023-06-22T07:17:28;23.80;80.40
27314;DHT22;14800;48.174;9.798;2023-06-22T07:19:53;23.90;80.60
27314;DHT22;14800;48.174;9.798;2023-06-22T07:22:19;24.00;80.20
27314;DHT22;14800;48.174;9.798;2023-06-22T07:24:45;24.10;80.60
27314;DHT22;14800;48.174;9.798;2023-06-22T07:27:10;24.10;80.40
27314;DHT22;14800;48.174;9.798;2023-06-22T07:29:37;24.20;80.10
27314;DHT22;14800;48.174;9.798;2023-06-22T07:32:05;24.30;79.10
27314;DHT22;14800;48.174;9.798;2023-06-22T07:34:31;24.40;78.80
27314;DHT22;14800;48.174;9.798;2023-06-22T07:36:56;24.40;78.70
27314;DHT22;14800;48.174;9.798;2023-06-22T07:39:22;24.50;78.40
27314;DHT22;14800;48.174;9.798;2023-06-22T07:41:51;24.60;78.60
27314;DHT22;14800;48.174;9.798;2023-06-22T07:44:16;24.70;78.40
27314;DHT22;14800;48.174;9.798;2023-06-22T07:46:42;24.70;78.00
27314;DHT22;14800;48.174;9.798;2023-06-22T07:49:08;24.80;77.90
27314;DHT22;14800;48.174;9.798;2023-06-22T07:51:34;24.90;77.70
27314;DHT22;14800;48.174;9.798;2023-06-22T07:53:59;25.00;77.50
27314;DHT22;14800;48.174;9.798;2023-06-22T07:56:25;25.10;77.20
27314;DHT22;14800;48.174;9.798;2023-06-22T07:58:51;25.20;76.90
27314;DHT22;14800;48.174;9.798;2023-06-22T08:01:16;25.30;76.70
27314;DHT22;14800;48.174;9.798;2023-06-22T08:03:42;25.40;76.40
27314;DHT22;14800;48.174;9.798;2023-06-22T08:06:09;25.50;76.10
27314;DHT22;14800;48.174;9.798;2023-06-22T08:08:35;25.50;76.60
27314;DHT22;14800;48.174;9.798;2023-06-22T08:11:01;25.60;76.00
27314;DHT22;14800;48.174;9.798;2023-06-22T08:13:27;25.70;76.00
27314;DHT22;14800;48.174;9.798;2023-06-22T08:15:52;25.80;75.40
27314;DHT22;14800;48.174;9.798;2023-06-22T08:18:18;25.90;75.30
27314;DHT22;14800;48.174;9.798;2023-06-22T08:20:43;26.00;75.30
27314;DHT22;14800;48.174;9.798;2023-06-22T08:23:09;26.20;75.00
27314;DHT22;14800;48.174;9.798;2023-06-22T08:25:35;26.20;74.70
27314;DHT22;14800;48.174;9.798;2023-06-22T08:28:02;26.30;74.50
27314;DHT22;14800;48.174;9.798;2023-06-22T08:30:27;26.40;74.20
27314;DHT22;14800;48.174;9.798;2023-06-22T08:32:53;26.50;73.70
27314;DHT22;14800;48.174;9.798;2023-06-22T08:35:21;26.60;73.30
27314;DHT22;14800;48.174;9.798;2023-06-22T08:37:47;26.70;73.30
27314;DHT22;14800;48.174;9.798;2023-06-22T08:40:17;26.80;73.70
27314;DHT22;14800;48.174;9.798;2023-06-22T08:42:43;26.90;73.50
27314;DHT22;14800;48.174;9.798;2023-06-22T08:45:09;27.00;73.20
27314;DHT22;14800;48.174;9.798;2023-06-22T08:47:35;27.10;73.00
27314;DHT22;14800;48.174;9.798;2023-06-22T08:50:01;27.20;73.00
27314;DHT22;14800;48.174;9.798;2023-06-22T08:52:29;27.30;73.50
27314;DHT22;14800;48.174;9.798;2023-06-22T08:54:55;27.50;72.30
27314;DHT22;14800;48.174;9.798;2023-06-22T08:57:21;27.60;71.80
27314;DHT22;14800;48.174;9.798;2023-06-22T08:59:46;27.70;71.30
27314;DHT22;14800;48.174;9.798;2023-06-22T09:02:12;27.80;70.70
27314;DHT22;14800;48.174;9.798;2023-06-22T09:04:38;27.90;70.50
27314;DHT22;14800;48.174;9.798;2023-06-22T09:07:04;27.90;70.10
27314;DHT22;14800;48.174;9.798;2023-06-22T09:09:29;28.00;70.00
27314;DHT22;14800;48.174;9.798;2023-06-22T09:11:55;28.00;70.00
27314;DHT22;14800;48.174;9.798;2023-06-22T09:14:20;28.20;69.60
27314;DHT22;14800;48.174;9.798;2023-06-22T09:16:46;28.30;69.10
27314;DHT22;14800;48.174;9.798;2023-06-22T09:19:12;28.30;69.00
27314;DHT22;14800;48.174;9.798;2023-06-22T09:21:38;28.40;68.20
27314;DHT22;14800;48.174;9.798;2023-06-22T09:24:03;28.50;67.40
27314;DHT22;14800;48.174;9.798;2023-06-22T09:26:29;28.50;67.30
27314;DHT22;14800;48.174;9.798;2023-06-22T09:28:55;28.50;66.60
27314;DHT22;14800;48.174;9.798;2023-06-22T09:31:21;28.50;66.40
27314;DHT22;14800;48.174;9.798;2023-06-22T09:33:53;28.50;67.20
27314;DHT22;14800;48.174;9.798;2023-06-22T09:36:22;28.50;67.00
27314;DHT22;14800;48.174;9.798;2023-06-22T09:38:48;28.60;67.30
27314;DHT22;14800;48.174;9.798;2023-06-22T09:41:20;28.60;66.60
27314;DHT22;14800;48.174;9.798;2023-06-22T09:43:46;28.70;66.20
27314;DHT22;14800;48.174;9.798;2023-06-22T09:46:14;28.80;65.30
27314;DHT22;14800;48.174;9.798;2023-06-22T09:48:40;28.80;65.70
27314;DHT22;14800;48.174;9.798;2023-06-22T09:51:05;28.80;65.90
27314;DHT22;14800;48.174;9.798;2023-06-22T09:53:31;28.90;65.80
27314;DHT22;14800;48.174;9.798;2023-06-22T09:55:57;28.90;65.40
27314;DHT22;14800;48.174;9.798;2023-06-22T09:58:23;28.90;64.60
27314;DHT22;14800;48.174;9.798;2023-06-22T10:00:48;28.90;64.40
27314;DHT22;14800;48.174;9.798;2023-06-22T10:03:14;28.80;64.70
27314;DHT22;14800;48.174;9.798;2023-06-22T10:05:40;28.80;64.50
27314;DHT22;14800;48.174;9.798;2023-06-22T10:08:05;28.80;65.60
27314;DHT22;14800;48.174;9.798;2023-06-22T10:10:33;28.80;66.20
27314;DHT22;14800;48.174;9.798;2023-06-22T10:13:08;28.80;66.20
27314;DHT22;14800;48.174;9.798;2023-06-22T10:15:35;28.90;66.00
27314;DHT22;14800;48.174;9.798;2023-06-22T10:18:01;29.00;65.30
27314;DHT22;14800;48.174;9.798;2023-06-22T10:20:27;29.20;65.00
27314;DHT22;14800;48.174;9.798;2023-06-22T10:22:53;29.20;65.60
27314;DHT22;14800;48.174;9.798;2023-06-22T10:25:19;29.30;65.00
27314;DHT22;14800;48.174;9.798;2023-06-22T10:27:44;29.40;64.90
27314;DHT22;14800;48.174;9.798;2023-06-22T10:30:11;29.50;64.50
27314;DHT22;14800;48.174;9.798;2023-06-22T10:32:41;29.60;64.70
27314;DHT22;14800;48.174;9.798;2023-06-22T10:35:06;29.70;64.70
27314;DHT22;14800;48.174;9.798;2023-06-22T10:37:32;29.80;64.50
27314;DHT22;14800;48.174;9.798;2023-06-22T10:39:58;29.90;64.60
27314;DHT22;14800;48.174;9.798;2023-06-22T10:42:24;30.00;64.00
27314;DHT22;14800;48.174;9.798;2023-06-22T10:44:49;30.10;64.10
27314;DHT22;14800;48.174;9.798;2023-06-22T10:47:15;30.20;64.10
27314;DHT22;14800;48.174;9.798;2023-06-22T10:49:41;30.30;63.60
27314;DHT22;14800;48.174;9.798;2023-06-22T10:52:08;30.40;63.60
27314;DHT22;14800;48.174;9.798;2023-06-22T10:54:35;30.50;63.60
27314;DHT22;14800;48.174;9.798;2023-06-22T10:57:01;30.70;63.20
27314;DHT22;14800;48.174;9.798;2023-06-22T10:59:27;30.80;63.10
27314;DHT22;14800;48.174;9.798;2023-06-22T11:01:54;30.90;62.50
27314;DHT22;14800;48.174;9.798;2023-06-22T11:04:20;30.90;61.90
27314;DHT22;14800;48.174;9.798;2023-06-22T11:06:45;31.10;62.20
27314;DHT22;14800;48.174;9.798;2023-06-22T11:09:11;31.10;61.70
27314;DHT22;14800;48.174;9.798;2023-06-22T11:11:37;31.20;61.80
27314;DHT22;14800;48.174;9.798;2023-06-22T11:14:02;31.30;61.40
27314;DHT22;14800;48.174;9.798;2023-06-22T11:16:28;31.40;61.00
27314;DHT22;14800;48.174;9.798;2023-06-22T11:18:53;31.40;60.70
27314;DHT22;14800;48.174;9.798;2023-06-22T11:21:19;31.50;60.70
27314;DHT22;14800;48.174;9.798;2023-06-22T11:23:45;31.60;60.10
27314;DHT22;14800;48.174;9.798;2023-06-22T11:26:11;31.70;59.80
27314;DHT22;14800;48.174;9.798;2023-06-22T11:28:36;31.70;59.30
27314;DHT22;14800;48.174;9.798;2023-06-22T11:31:02;31.80;59.40
27314;DHT22;14800;48.174;9.798;2023-06-22T11:33:28;31.80;59.10
27314;DHT22;14800;48.174;9.798;2023-06-22T11:35:54;31.90;58.80
27314;DHT22;14800;48.174;9.798;2023-06-22T11:38:21;32.00;58.80
27314;DHT22;14800;48.174;9.798;2023-06-22T11:40:47;32.00;58.40
27314;DHT22;14800;48.174;9.798;2023-06-22T11:43:12;32.10;58.00
27314;DHT22;14800;48.174;9.798;2023-06-22T11:45:40;32.10;57.40
27314;DHT22;14800;48.174;9.798;2023-06-22T11:48:05;32.10;57.20
27314;DHT22;14800;48.174;9.798;2023-06-22T11:50:31;32.10;57.10
27314;DHT22;14800;48.174;9.798;2023-06-22T11:53:04;32.00;57.00
27314;DHT22;14800;48.174;9.798;2023-06-22T11:55:29;32.00;57.50
27314;DHT22;14800;48.174;9.798;2023-06-22T11:57:56;32.00;57.30
27314;DHT22;14800;48.174;9.798;2023-06-22T12:00:25;32.00;57.40
27314;DHT22;14800;48.174;9.798;2023-06-22T12:02:51;32.00;57.40
27314;DHT22;14800;48.174;9.798;2023-06-22T12:05:20;32.00;57.30
27314;DHT22;14800;48.174;9.798;2023-06-22T12:07:46;32.00;56.50
27314;DHT22;14800;48.174;9.798;2023-06-22T12:10:12;32.00;56.90
27314;DHT22;14800;48.174;9.798;2023-06-22T12:12:38;32.00;56.90
27314;DHT22;14800;48.174;9.798;2023-06-22T12:15:04;32.00;57.00
27314;DHT22;14800;48.174;9.798;2023-06-22T12:17:30;32.00;57.40
27314;DHT22;14800;48.174;9.798;2023-06-22T12:19:55;32.00;56.30
27314;DHT22;14800;48.174;9.798;2023-06-22T12:22:21;32.00;56.80
27314;DHT22;14800;48.174;9.798;2023-06-22T12:24:47;32.00;56.50
27314;DHT22;14800;48.174;9.798;2023-06-22T12:27:12;32.00;56.10
27314;DHT22;14800;48.174;9.798;2023-06-22T12:29:38;31.90;56.10
27314;DHT22;14800;48.174;9.798;2023-06-22T12:32:04;31.90;56.30
27314;DHT22;14800;48.174;9.798;2023-06-22T12:34:29;31.80;56.20
27314;DHT22;14800;48.174;9.798;2023-06-22T12:36:55;31.80;55.60
27314;DHT22;14800;48.174;9.798;2023-06-22T12:39:21;31.80;55.20
27314;DHT22;14800;48.174;9.798;2023-06-22T12:41:46;31.70;55.50
27314;DHT22;14800;48.174;9.798;2023-06-22T12:44:12;31.70;56.00
27314;DHT22;14800;48.174;9.798;2023-06-22T12:46:37;31.60;54.90
27314;DHT22;14800;48.174;9.798;2023-06-22T12:49:04;31.60;54.60
27314;DHT22;14800;48.174;9.798;2023-06-22T12:51:30;31.60;54.80
27314;DHT22;14800;48.174;9.798;2023-06-22T12:53:56;31.50;55.30
27314;DHT22;14800;48.174;9.798;2023-06-22T12:56:22;31.50;55.00
27314;DHT22;14800;48.174;9.798;2023-06-22T12:58:48;31.60;54.80
27314;DHT22;14800;48.174;9.798;2023-06-22T13:01:13;31.60;55.00
27314;DHT22;14800;48.174;9.798;2023-06-22T13:03:39;31.70;55.00
27314;DHT22;14800;48.174;9.798;2023-06-22T13:06:05;31.80;55.30
27314;DHT22;14800;48.174;9.798;2023-06-22T13:08:30;31.80;55.00
27314;DHT22;14800;48.174;9.798;2023-06-22T13:10:56;31.90;55.20
27314;DHT22;14800;48.174;9.798;2023-06-22T13:13:25;31.90;54.10
27314;DHT22;14800;48.174;9.798;2023-06-22T13:15:52;32.00;54.20
27314;DHT22;14800;48.174;9.798;2023-06-22T13:18:19;31.90;54.30
27314;DHT22;14800;48.174;9.798;2023-06-22T13:20:44;31.90;53.60
27314;DHT22;14800;48.174;9.798;2023-06-22T13:23:11;31.90;53.40
27314;DHT22;14800;48.174;9.798;2023-06-22T13:25:36;31.90;54.00
27314;DHT22;14800;48.174;9.798;2023-06-22T13:28:02;31.90;54.00
27314;DHT22;14800;48.174;9.798;2023-06-22T13:30:28;31.90;54.10
27314;DHT22;14800;48.174;9.798;2023-06-22T13:32:54;31.80;54.60
27314;DHT22;14800;48.174;9.798;2023-06-22T13:35:20;31.80;54.60
27314;DHT22;14800;48.174;9.798;2023-06-22T13:37:45;31.80;54.30
27314;DHT22;14800;48.174;9.798;2023-06-22T13:40:11;31.80;54.30
27314;DHT22;14800;48.174;9.798;2023-06-22T13:42:36;31.80;53.70
27314;DHT22;14800;48.174;9.798;2023-06-22T13:45:02;31.80;53.90
27314;DHT22;14800;48.174;9.798;2023-06-22T13:47:29;31.70;54.30
27314;DHT22;14800;48.174;9.798;2023-06-22T13:49:55;31.70;54.50
27314;DHT22;14800;48.174;9.798;2023-06-22T13:52:20;31.70;54.50
27314;DHT22;14800;48.174;9.798;2023-06-22T13:54:46;31.70;54.60
27314;DHT22;14800;48.174;9.798;2023-06-22T13:57:12;31.70;54.90
27314;DHT22;14800;48.174;9.798;2023-06-22T13:59:37;31.70;54.50
27314;DHT22;14800;48.174;9.798;2023-06-22T14:02:03;31.80;55.20
27314;DHT22;14800;48.174;9.798;2023-06-22T14:04:29;31.80;55.50
27314;DHT22;14800;48.174;9.798;2023-06-22T14:06:54;31.80;55.90
27314;DHT22;14800;48.174;9.798;2023-06-22T14:09:21;31.90;55.50
27314;DHT22;14800;48.174;9.798;2023-06-22T14:11:46;32.00;55.90
27314;DHT22;14800;48.174;9.798;2023-06-22T14:14:12;32.00;55.50
27314;DHT22;14800;48.174;9.798;2023-06-22T14:16:38;32.10;56.40
27314;DHT22;14800;48.174;9.798;2023-06-22T14:19:03;32.30;55.50
27314;DHT22;14800;48.174;9.798;2023-06-22T14:21:29;32.40;55.10
27314;DHT22;14800;48.174;9.798;2023-06-22T14:23:54;32.50;54.50
27314;DHT22;14800;48.174;9.798;2023-06-22T14:26:20;32.50;54.70
27314;DHT22;14800;48.174;9.798;2023-06-22T14:28:48;32.60;54.50
27314;DHT22;14800;48.174;9.798;2023-06-22T14:31:15;32.70;54.30
27314;DHT22;14800;48.174;9.798;2023-06-22T14:33:47;32.80;53.70
27314;DHT22;14800;48.174;9.798;2023-06-22T14:36:14;32.90;53.60
27314;DHT22;14800;48.174;9.798;2023-06-22T14:38:39;32.90;54.40
27314;DHT22;14800;48.174;9.798;2023-06-22T14:41:05;32.90;53.70
27314;DHT22;14800;48.174;9.798;2023-06-22T14:43:30;33.00;54.20
27314;DHT22;14800;48.174;9.798;2023-06-22T14:45:56;33.00;53.80
27314;DHT22;14800;48.174;9.798;2023-06-22T14:48:22;33.00;53.70
27314;DHT22;14800;48.174;9.798;2023-06-22T14:50:47;33.00;53.90
27314;DHT22;14800;48.174;9.798;2023-06-22T14:53:13;33.10;53.80
27314;DHT22;14800;48.174;9.798;2023-06-22T14:55:40;33.10;53.70
27314;DHT22;14800;48.174;9.798;2023-06-22T14:58:05;33.10;53.20
27314;DHT22;14800;48.174;9.798;2023-06-22T15:00:31;33.10;53.40
27314;DHT22;14800;48.174;9.798;2023-06-22T15:02:56;33.10;53.00
27314;DHT22;14800;48.174;9.798;2023-06-22T15:05:22;33.10;53.90
27314;DHT22;14800;48.174;9.798;2023-06-22T15:07:49;33.10;54.00
27314;DHT22;14800;48.174;9.798;2023-06-22T15:10:15;33.10;53.80
27314;DHT22;14800;48.174;9.798;2023-06-22T15:12:41;33.10;53.70
27314;DHT22;14800;48.174;9.798;2023-06-22T15:15:07;33.10;53.50
27314;DHT22;14800;48.174;9.798;2023-06-22T15:17:32;33.10;53.40
27314;DHT22;14800;48.174;9.798;2023-06-22T15:19:58;33.10;53.70
27314;DHT22;14800;48.174;9.798;2023-06-22T15:22:24;33.10;53.80
27314;DHT22;14800;48.174;9.798;2023-06-22T15:24:50;33.10;53.60
27314;DHT22;14800;48.174;9.798;2023-06-22T15:27:18;33.10;53.80
27314;DHT22;14800;48.174;9.798;2023-06-22T15:29:44;33.10;53.80
27314;DHT22;14800;48.174;9.798;2023-06-22T15:32:10;33.10;53.40
27314;DHT22;14800;48.174;9.798;2023-06-22T15:34:35;33.10;53.20
27314;DHT22;14800;48.174;9.798;2023-06-22T15:37:01;33.00;52.70